createdAt,value
2022-12-27T00:00:51.939Z,12.05
2022-12-27T00:03:22.064Z,11.77
2022-12-27T00:05:51.763Z,11.43
2022-12-27T00:08:21.541Z,12.68
2022-12-27T00:10:51.317Z,13.38
2022-12-27T00:13:20.867Z,12.82
2022-12-27T00:15:50.459Z,13.27
2022-12-27T00:18:20.088Z,19.92
2022-12-27T00:20:49.750Z,18.30
2022-12-27T00:23:19.410Z,14.95
2022-12-27T00:25:49.160Z,14.23
2022-12-27T00:28:19.440Z,14.52
2022-12-27T00:30:55.896Z,14.55
2022-12-27T00:33:25.629Z,20.95
2022-12-27T00:35:55.540Z,20.33
2022-12-27T00:38:26.110Z,20.55
2022-12-27T00:40:56.076Z,19.92
2022-12-27T00:43:25.641Z,20.40
2022-12-27T00:45:55.653Z,26.85
2022-12-27T00:48:25.694Z,21.90
2022-12-27T00:51:04.611Z,22.30
2022-12-27T00:53:35.753Z,21.20
2022-12-27T00:56:13.686Z,24.55
2022-12-27T00:58:43.282Z,20.90
2022-12-27T01:01:21.891Z,18.65
2022-12-27T01:03:51.917Z,21.05
2022-12-27T01:06:24.712Z,17.08
2022-12-27T01:08:54.410Z,15.38
2022-12-27T01:11:24.432Z,14.98
2022-12-27T01:13:54.093Z,14.68
2022-12-27T01:16:25.643Z,15.50
2022-12-27T01:18:55.637Z,15.55
2022-12-27T01:21:27.131Z,15.38
2022-12-27T01:23:56.990Z,13.70
2022-12-27T01:26:27.063Z,12.90
2022-12-27T01:28:57.004Z,12.95
2022-12-27T01:31:30.069Z,12.60
2022-12-27T01:34:01.714Z,12.10
2022-12-27T01:36:33.190Z,14.23
2022-12-27T01:39:04.135Z,13.38
2022-12-27T01:41:56.276Z,13.75
2022-12-27T01:44:53.609Z,13.02
2022-12-27T01:47:40.273Z,14.40
2022-12-27T01:50:23.347Z,12.07
2022-12-27T01:53:12.589Z,13.30
2022-12-27T01:56:03.264Z,14.32
2022-12-27T01:58:44.858Z,12.63
2022-12-27T02:01:24.964Z,12.00
2022-12-27T02:04:03.517Z,11.90
2022-12-27T02:06:34.504Z,12.30
2022-12-27T02:09:28.961Z,13.50
2022-12-27T02:12:00.050Z,12.90
2022-12-27T02:14:48.818Z,14.73
2022-12-27T02:17:32.108Z,13.73
2022-12-27T02:20:24.333Z,14.90
2022-12-27T02:23:45.086Z,14.90
2022-12-27T02:26:50.019Z,14.25
2022-12-27T02:29:44.409Z,14.60
2022-12-27T02:32:29.769Z,14.80
2022-12-27T02:35:16.660Z,12.02
2022-12-27T02:37:54.961Z,13.07
2022-12-27T02:43:35.122Z,13.55
2022-12-27T02:46:48.497Z,12.52
2022-12-27T02:49:58.580Z,12.23
2022-12-27T02:53:07.510Z,11.00
2022-12-27T02:56:35.911Z,9.18
2022-12-27T02:59:38.384Z,8.90
2022-12-27T03:02:52.740Z,9.52
2022-12-27T03:06:16.091Z,9.65
2022-12-27T03:09:11.960Z,8.65
2022-12-27T03:12:12.632Z,8.65
2022-12-27T03:15:08.467Z,8.50
2022-12-27T03:17:46.144Z,7.32
2022-12-27T03:20:41.131Z,7.50
2022-12-27T03:23:31.900Z,5.70
2022-12-27T03:26:05.188Z,7.28
2022-12-27T03:28:56.083Z,8.75
2022-12-27T03:31:55.809Z,8.70
2022-12-27T03:34:41.684Z,8.38
2022-12-27T03:37:39.448Z,10.05
2022-12-27T03:40:36.356Z,9.38
2022-12-27T03:43:17.505Z,8.45
2022-12-27T03:46:35.809Z,8.20
2022-12-27T03:49:37.599Z,8.55
2022-12-27T03:52:28.501Z,7.57
2022-12-27T03:54:59.640Z,5.70
2022-12-27T03:57:30.054Z,6.57
2022-12-27T03:59:59.727Z,5.93
2022-12-27T04:02:29.484Z,6.68
2022-12-27T04:04:59.195Z,6.88
2022-12-27T04:07:28.847Z,6.25
2022-12-27T04:10:18.010Z,6.30
2022-12-27T04:13:07.297Z,5.75
2022-12-27T04:15:56.637Z,6.07
2022-12-27T04:18:45.845Z,5.95
2022-12-27T04:21:35.018Z,6.20
2022-12-27T04:24:24.259Z,6.18
2022-12-27T04:27:13.509Z,6.03
2022-12-27T04:30:02.659Z,4.85
2022-12-27T04:32:51.860Z,6.25
2022-12-27T04:35:21.488Z,6.15
2022-12-27T04:37:51.104Z,6.13
2022-12-27T04:40:40.465Z,6.38
2022-12-27T04:43:31.481Z,5.88
2022-12-27T04:46:20.822Z,5.90
2022-12-27T04:49:10.006Z,5.43
2022-12-27T04:51:59.391Z,6.22
2022-12-27T04:54:48.506Z,6.18
2022-12-27T04:57:18.039Z,6.30
2022-12-27T05:00:07.135Z,5.93
2022-12-27T05:02:36.926Z,6.40
2022-12-27T05:05:06.910Z,6.88
2022-12-27T05:07:56.118Z,6.25
2022-12-27T05:10:45.402Z,7.05
2022-12-27T05:13:35.410Z,7.03
2022-12-27T05:16:05.073Z,6.63
2022-12-27T05:18:34.621Z,6.18
2022-12-27T05:21:06.379Z,6.20
2022-12-27T05:24:04.883Z,5.88
2022-12-27T05:26:36.112Z,5.97
2022-12-27T05:29:06.054Z,6.78
2022-12-27T05:31:36.144Z,6.10
2022-12-27T05:34:06.779Z,6.15
2022-12-27T05:36:36.571Z,6.22
2022-12-27T05:39:06.217Z,6.25
2022-12-27T05:41:35.775Z,6.68
2022-12-27T05:44:07.628Z,5.82
2022-12-27T05:46:37.748Z,5.85
2022-12-27T05:49:07.451Z,5.47
2022-12-27T05:51:37.099Z,6.55
2022-12-27T05:54:07.023Z,5.97
2022-12-27T05:56:38.902Z,6.88
2022-12-27T05:59:09.728Z,5.78
2022-12-27T06:01:39.351Z,6.50
2022-12-27T06:04:08.864Z,6.15
2022-12-27T06:06:38.517Z,6.78
2022-12-27T06:09:08.030Z,6.40
2022-12-27T06:11:37.553Z,6.30
2022-12-27T06:14:07.137Z,6.22
2022-12-27T06:16:36.801Z,6.07
2022-12-27T06:19:06.450Z,6.28
2022-12-27T06:21:36.143Z,6.22
2022-12-27T06:24:05.853Z,6.78
2022-12-27T06:26:36.033Z,5.78
2022-12-27T06:29:05.710Z,5.65
2022-12-27T06:31:35.343Z,5.93
2022-12-27T06:34:04.959Z,5.32
2022-12-27T06:36:34.694Z,6.07
2022-12-27T06:39:04.419Z,4.70
2022-12-27T06:41:34.093Z,6.72
2022-12-27T06:44:03.790Z,5.78
2022-12-27T06:46:34.245Z,5.57
2022-12-27T06:49:04.105Z,5.93
2022-12-27T06:51:33.754Z,5.78
2022-12-27T06:54:03.387Z,4.72
2022-12-27T06:56:33.004Z,6.22
2022-12-27T06:59:02.871Z,6.50
2022-12-27T07:01:32.539Z,6.13
2022-12-27T07:04:03.315Z,6.22
2022-12-27T07:06:34.462Z,5.30
2022-12-27T07:09:04.064Z,5.50
2022-12-27T07:11:36.219Z,6.18
2022-12-27T07:14:07.191Z,5.40
2022-12-27T07:16:37.094Z,5.70
2022-12-27T07:19:06.891Z,5.75
2022-12-27T07:21:36.400Z,5.75
2022-12-27T07:24:06.224Z,5.57
2022-12-27T07:26:35.701Z,5.70
2022-12-27T07:29:05.306Z,5.53
2022-12-27T07:31:35.582Z,5.88
2022-12-27T07:34:05.965Z,6.00
2022-12-27T07:36:41.499Z,5.47
2022-12-27T07:39:11.408Z,5.00
2022-12-27T07:41:40.992Z,5.40
2022-12-27T07:44:11.481Z,4.90
2022-12-27T07:46:42.001Z,5.25
2022-12-27T07:49:17.555Z,5.18
2022-12-27T07:51:47.796Z,4.85
2022-12-27T07:54:17.376Z,5.13
2022-12-27T07:56:47.045Z,4.85
2022-12-27T07:59:17.025Z,4.93
2022-12-27T08:02:06.556Z,5.40
2022-12-27T08:04:39.874Z,5.28
2022-12-27T08:07:19.372Z,5.32
2022-12-27T08:09:50.295Z,4.65
2022-12-27T08:12:19.836Z,5.03
2022-12-27T08:14:49.563Z,5.20
2022-12-27T08:17:23.642Z,5.93
2022-12-27T08:19:57.437Z,4.75
2022-12-27T08:22:27.076Z,4.50
2022-12-27T08:24:57.880Z,5.15
2022-12-27T08:27:27.982Z,4.75
2022-12-27T08:29:57.548Z,4.85
2022-12-27T08:32:27.247Z,4.88
2022-12-27T08:35:07.036Z,4.95
2022-12-27T08:37:46.493Z,5.22
2022-12-27T08:40:16.063Z,4.85
2022-12-27T08:42:45.628Z,4.32
2022-12-27T08:45:15.858Z,4.10
2022-12-27T08:47:46.157Z,5.15
2022-12-27T08:50:15.642Z,4.38
2022-12-27T08:52:45.144Z,4.32
2022-12-27T08:55:14.763Z,4.82
2022-12-27T08:57:44.310Z,4.47
2022-12-27T09:00:14.553Z,4.30
2022-12-27T09:02:44.371Z,4.75
2022-12-27T09:05:13.955Z,4.70
2022-12-27T09:07:43.448Z,4.53
2022-12-27T09:10:13.030Z,4.53
2022-12-27T09:12:42.623Z,4.72
2022-12-27T09:15:12.504Z,4.75
2022-12-27T09:17:42.855Z,4.82
2022-12-27T09:20:14.015Z,4.60
2022-12-27T09:22:43.770Z,4.70
2022-12-27T09:25:13.530Z,5.38
2022-12-27T09:27:43.135Z,5.05
2022-12-27T09:30:13.220Z,4.43
2022-12-27T09:32:42.735Z,4.60
2022-12-27T09:35:12.443Z,5.30
2022-12-27T09:37:42.127Z,4.75
2022-12-27T09:40:16.777Z,5.10
2022-12-27T09:43:22.357Z,4.45
2022-12-27T09:45:59.125Z,5.38
2022-12-27T09:48:39.134Z,4.80
2022-12-27T09:51:23.150Z,4.20
2022-12-27T09:54:16.921Z,4.57
2022-12-27T09:57:18.283Z,4.70
2022-12-27T09:59:40.674Z,4.85
2022-12-27T10:02:30.901Z,4.88
2022-12-27T10:05:19.867Z,5.13
2022-12-27T10:08:16.985Z,4.88
2022-12-27T10:11:31.629Z,4.40
2022-12-27T10:14:23.939Z,4.80
2022-12-27T10:17:13.714Z,5.10
2022-12-27T10:19:55.422Z,4.60
2022-12-27T10:22:44.961Z,4.65
2022-12-27T10:25:16.785Z,5.43
2022-12-27T10:27:48.822Z,5.50
2022-12-27T10:30:21.582Z,6.00
2022-12-27T10:32:51.746Z,6.15
2022-12-27T10:35:23.215Z,5.75
2022-12-27T10:37:55.260Z,6.20
2022-12-27T10:40:39.953Z,5.88
2022-12-27T10:43:37.317Z,7.20
2022-12-27T10:46:33.906Z,7.97
2022-12-27T10:49:20.692Z,8.25
2022-12-27T10:51:52.354Z,8.20
2022-12-27T10:54:33.086Z,8.52
2022-12-27T10:57:30.511Z,8.65
2022-12-27T11:00:23.935Z,9.23
2022-12-27T11:02:58.668Z,9.63
2022-12-27T11:05:32.156Z,8.95
2022-12-27T11:08:05.117Z,10.80
2022-12-27T11:10:34.725Z,8.40
2022-12-27T11:13:19.750Z,7.55
2022-12-27T11:15:59.270Z,8.93
2022-12-27T11:18:29.096Z,8.02
2022-12-27T11:21:01.090Z,7.22
2022-12-27T11:23:44.824Z,8.23
2022-12-27T11:26:23.044Z,9.10
2022-12-27T11:29:00.779Z,8.00
2022-12-27T11:31:43.602Z,9.43
2022-12-27T11:34:34.195Z,9.57
2022-12-27T11:37:18.604Z,9.15
2022-12-27T11:39:57.489Z,9.35
2022-12-27T11:42:49.741Z,7.72
2022-12-27T11:45:29.342Z,8.68
2022-12-27T11:48:21.814Z,8.35
2022-12-27T11:51:32.017Z,8.98
2022-12-27T11:54:37.251Z,7.85
2022-12-27T11:57:46.008Z,8.48
2022-12-27T12:00:24.045Z,8.82
2022-12-27T12:06:21.504Z,9.93
2022-12-27T12:09:30.306Z,12.23
2022-12-27T12:12:27.503Z,11.25
2022-12-27T12:15:36.327Z,11.93
2022-12-27T12:18:33.219Z,12.95
2022-12-27T12:21:28.463Z,17.05
2022-12-27T12:24:37.199Z,16.95
2022-12-27T12:27:38.688Z,17.45
2022-12-27T12:30:47.678Z,15.60
2022-12-27T12:33:56.465Z,16.33
2022-12-27T12:36:55.692Z,16.10
2022-12-27T12:40:00.668Z,17.90
2022-12-27T12:42:57.257Z,16.00
2022-12-27T12:46:07.004Z,18.08
2022-12-27T12:49:15.756Z,16.00
2022-12-27T12:52:17.687Z,15.23
2022-12-27T12:55:12.551Z,15.05
2022-12-27T12:58:07.535Z,13.65
2022-12-27T13:01:06.706Z,12.07
2022-12-27T13:04:15.580Z,15.68
2022-12-27T13:07:24.577Z,18.25
2022-12-27T13:10:33.400Z,13.90
2022-12-27T13:13:42.091Z,12.15
2022-12-27T13:16:27.619Z,12.55
2022-12-27T13:19:36.438Z,11.60
2022-12-27T13:22:39.641Z,11.88
2022-12-27T13:25:48.323Z,11.18
2022-12-27T13:28:57.059Z,12.38
2022-12-27T13:32:05.723Z,10.65
2022-12-27T13:34:45.751Z,16.10
2022-12-27T13:37:42.383Z,13.35
2022-12-27T13:40:51.191Z,11.52
2022-12-27T13:43:59.859Z,11.07
2022-12-27T13:47:08.610Z,11.82
2022-12-27T13:50:15.320Z,12.18
2022-12-27T13:53:16.031Z,17.40
2022-12-27T13:56:20.449Z,15.20
2022-12-27T13:59:31.305Z,11.30
2022-12-27T14:02:40.211Z,12.77
2022-12-27T14:05:46.306Z,11.95
2022-12-27T14:08:35.278Z,13.57
2022-12-27T14:11:16.655Z,11.98
2022-12-27T14:13:46.497Z,11.98
2022-12-27T14:16:40.195Z,13.65
2022-12-27T14:19:48.869Z,11.60
2022-12-27T14:22:53.971Z,12.57
2022-12-27T14:25:53.563Z,13.48
2022-12-27T14:29:00.167Z,12.38
2022-12-27T14:32:04.656Z,14.20
2022-12-27T14:35:13.406Z,18.75
2022-12-27T14:38:22.119Z,16.98
2022-12-27T14:41:30.889Z,19.10
2022-12-27T14:44:28.152Z,16.42
2022-12-27T14:47:36.887Z,16.75
2022-12-27T14:50:45.553Z,15.65
2022-12-27T14:53:53.170Z,15.18
2022-12-27T14:57:02.028Z,15.88
2022-12-27T15:00:03.761Z,14.55
2022-12-27T15:03:12.520Z,15.10
2022-12-27T15:06:20.244Z,13.25
2022-12-27T15:09:05.422Z,14.27
2022-12-27T15:12:06.910Z,13.13
2022-12-27T15:15:01.764Z,14.32
2022-12-27T15:17:52.784Z,13.27
2022-12-27T15:21:01.544Z,13.25
2022-12-27T15:23:44.667Z,13.02
2022-12-27T15:26:42.516Z,13.18
2022-12-27T15:29:29.971Z,12.75
2022-12-27T15:32:38.633Z,19.02
2022-12-27T15:35:40.391Z,19.77
2022-12-27T15:38:53.997Z,13.98
2022-12-27T15:41:46.705Z,15.25
2022-12-27T15:44:48.369Z,13.90
2022-12-27T15:47:57.095Z,13.35
2022-12-27T15:50:46.372Z,13.45
2022-12-27T15:53:39.205Z,13.25
2022-12-27T15:56:38.284Z,13.93
2022-12-27T15:59:43.110Z,12.77
2022-12-27T16:02:40.170Z,12.55
2022-12-27T16:05:49.129Z,12.20
2022-12-27T16:08:28.286Z,12.07
2022-12-27T16:10:59.528Z,12.85
2022-12-27T16:13:42.915Z,12.82
2022-12-27T16:16:36.595Z,12.43
2022-12-27T16:19:40.371Z,13.25
2022-12-27T16:22:41.773Z,12.27
2022-12-27T16:25:35.121Z,12.20
2022-12-27T16:28:21.275Z,13.30
2022-12-27T16:30:57.868Z,14.48
2022-12-27T16:33:39.156Z,16.08
2022-12-27T16:36:29.994Z,18.10
2022-12-27T16:39:25.840Z,16.35
2022-12-27T16:42:08.499Z,16.15
2022-12-27T16:45:17.200Z,13.95
2022-12-27T16:48:09.044Z,13.68
2022-12-27T16:50:49.230Z,14.93
2022-12-27T16:53:42.996Z,14.18
2022-12-27T16:56:23.393Z,17.52
2022-12-27T16:58:53.700Z,20.70
2022-12-27T17:01:51.869Z,19.20
2022-12-27T17:05:02.000Z,19.33
2022-12-27T17:07:58.195Z,20.27
2022-12-27T17:10:45.825Z,15.25
2022-12-27T17:13:54.601Z,17.20
2022-12-27T17:16:27.588Z,19.13
2022-12-27T17:19:09.754Z,17.52
2022-12-27T17:21:41.417Z,15.90
2022-12-27T17:24:20.764Z,16.55
2022-12-27T17:27:25.635Z,18.27
2022-12-27T17:30:27.211Z,17.33
2022-12-27T17:33:29.125Z,16.73
2022-12-27T17:36:17.071Z,16.27
2022-12-27T17:39:21.203Z,17.27
2022-12-27T17:42:33.558Z,16.77
2022-12-27T17:45:35.611Z,17.73
2022-12-27T17:48:27.809Z,16.92
2022-12-27T17:51:13.475Z,15.23
2022-12-27T17:54:14.638Z,14.25
2022-12-27T17:57:09.868Z,13.77
2022-12-27T17:59:46.384Z,14.13
2022-12-27T18:02:26.942Z,12.90
2022-12-27T18:04:59.414Z,14.77
2022-12-27T18:07:31.637Z,13.82
2022-12-27T18:10:05.873Z,14.40
2022-12-27T18:12:44.033Z,14.80
2022-12-27T18:15:24.654Z,13.38
2022-12-27T18:18:00.829Z,13.77
2022-12-27T18:20:37.458Z,13.65
2022-12-27T18:23:18.528Z,13.63
2022-12-27T18:25:54.624Z,13.48
2022-12-27T18:28:32.867Z,13.20
2022-12-27T18:31:34.230Z,12.77
2022-12-27T18:34:09.374Z,13.57
2022-12-27T18:36:49.453Z,12.98
2022-12-27T18:39:42.065Z,13.07
2022-12-27T18:42:41.517Z,13.25
2022-12-27T18:45:22.502Z,12.98
2022-12-27T18:47:55.393Z,13.15
2022-12-27T18:50:28.530Z,12.93
2022-12-27T18:53:25.299Z,12.20
2022-12-27T18:56:24.732Z,12.13
2022-12-27T18:59:03.487Z,13.35
2022-12-27T19:01:43.099Z,12.13
2022-12-27T19:04:24.720Z,11.95
2022-12-27T19:07:14.647Z,13.18
2022-12-27T19:09:51.571Z,12.65
2022-12-27T19:12:41.259Z,12.25
2022-12-27T19:15:26.512Z,13.02
2022-12-27T19:18:01.615Z,12.40
2022-12-27T19:20:37.580Z,12.82
2022-12-27T19:23:26.659Z,12.30
2022-12-27T19:26:26.068Z,12.52
2022-12-27T19:29:08.130Z,13.20
2022-12-27T19:31:39.921Z,13.00
2022-12-27T19:34:15.650Z,12.55
2022-12-27T19:36:47.445Z,12.95
2022-12-27T19:39:24.372Z,13.15
2022-12-27T19:42:01.055Z,13.30
2022-12-27T19:44:31.571Z,12.65
2022-12-27T19:47:01.561Z,13.05
2022-12-27T19:49:42.565Z,14.07
2022-12-27T19:52:25.714Z,14.13
2022-12-27T19:55:04.017Z,12.68
2022-12-27T20:00:08.467Z,12.98
2022-12-27T20:02:42.061Z,11.55
2022-12-27T20:05:12.791Z,12.88
2022-12-27T20:07:42.748Z,12.95
2022-12-27T20:10:16.866Z,12.02
2022-12-27T20:12:46.392Z,12.52
2022-12-27T20:15:15.960Z,11.02
2022-12-27T20:17:45.496Z,11.30
2022-12-27T20:20:15.234Z,12.27
2022-12-27T20:22:44.886Z,12.23
2022-12-27T20:25:14.941Z,12.05
2022-12-27T20:27:46.307Z,12.27
2022-12-27T20:30:16.287Z,11.77
2022-12-27T20:32:45.754Z,10.70
2022-12-27T20:35:15.389Z,11.85
2022-12-27T20:37:45.129Z,11.75
2022-12-27T20:40:14.803Z,11.13
2022-12-27T20:42:44.440Z,11.10
2022-12-27T20:45:14.160Z,10.27
2022-12-27T20:47:43.994Z,11.10
2022-12-27T20:50:13.627Z,11.02
2022-12-27T20:52:43.160Z,11.45
2022-12-27T20:55:14.597Z,11.25
2022-12-27T20:57:44.297Z,11.57
2022-12-27T21:00:16.779Z,11.57
2022-12-27T21:02:46.826Z,10.70
2022-12-27T21:05:19.000Z,10.32
2022-12-27T21:07:48.615Z,10.10
2022-12-27T21:10:18.328Z,11.13
2022-12-27T21:12:47.913Z,11.55
2022-12-27T21:15:17.669Z,10.75
2022-12-27T21:17:47.245Z,10.82
2022-12-27T21:20:16.920Z,11.02
2022-12-27T21:22:46.526Z,10.18
2022-12-27T21:25:16.175Z,11.25
2022-12-27T21:27:45.719Z,10.52
2022-12-27T21:30:15.816Z,11.02
2022-12-27T21:32:45.473Z,10.80
2022-12-27T21:35:15.175Z,11.20
2022-12-27T21:37:44.922Z,10.40
2022-12-27T21:40:14.829Z,10.40
2022-12-27T21:42:44.552Z,10.73
2022-12-27T21:45:14.184Z,11.13
2022-12-27T21:47:43.761Z,10.23
2022-12-27T21:50:13.425Z,9.80
2022-12-27T21:52:43.026Z,10.38
2022-12-27T21:55:12.854Z,9.75
2022-12-27T21:57:42.400Z,9.98
2022-12-27T22:00:12.915Z,10.07
2022-12-27T22:02:43.121Z,9.57
2022-12-27T22:05:13.046Z,9.82
2022-12-27T22:07:42.619Z,10.52
2022-12-27T22:10:12.441Z,10.27
2022-12-27T22:12:41.941Z,9.30
2022-12-27T22:15:11.971Z,10.18
2022-12-27T22:17:41.504Z,10.23
2022-12-27T22:20:11.660Z,10.93
2022-12-27T22:22:41.226Z,11.48
2022-12-27T22:25:11.536Z,10.90
2022-12-27T22:27:41.195Z,9.80
2022-12-27T22:30:11.115Z,11.43
2022-12-27T22:32:40.653Z,11.65
2022-12-27T22:35:10.622Z,10.57
2022-12-27T22:37:40.229Z,10.52
2022-12-27T22:40:37.896Z,12.10
2022-12-27T22:42:59.770Z,19.52
2022-12-27T22:45:29.338Z,25.77
2022-12-27T22:47:59.361Z,16.13
2022-12-27T22:50:28.945Z,11.95
2022-12-27T22:52:58.387Z,10.80
2022-12-27T22:55:28.022Z,16.25
2022-12-27T22:57:57.569Z,17.05
2022-12-27T23:00:27.160Z,16.63
2022-12-27T23:02:57.476Z,13.82
2022-12-27T23:05:28.446Z,11.00
2022-12-27T23:08:04.220Z,11.13
2022-12-27T23:13:06.104Z,12.02
2022-12-27T23:15:35.667Z,14.25
2022-12-27T23:18:05.316Z,12.20
2022-12-27T23:20:36.805Z,12.18
2022-12-27T23:23:06.323Z,12.40
2022-12-27T23:25:38.522Z,14.50
2022-12-27T23:28:08.055Z,13.27
2022-12-27T23:30:37.616Z,12.65
2022-12-27T23:33:07.276Z,13.20
2022-12-27T23:35:36.911Z,16.13
2022-12-27T23:38:07.307Z,15.68
2022-12-27T23:40:36.812Z,17.48
2022-12-27T23:43:33.271Z,15.63
2022-12-27T23:45:55.930Z,13.00
2022-12-27T23:48:25.502Z,12.55
2022-12-27T23:50:55.064Z,11.48
2022-12-27T23:53:24.761Z,11.48
2022-12-27T23:56:18.160Z,11.50
2022-12-27T23:58:48.197Z,11.82
